Wisconsin Dells, WI

12:39 PM CDT on Augustus 22, 2014 (GMT -0500)
Oxford, wi | Change Station
CLOSE
Current Station
Personal Weather Stations
Location: Oxford, WI
Elevation: 1043 ft
Nearby Weather Stations

Elev 1043 ft 43.75 °N, 89.70 °W | Updated 4 minutes ago

Mostly Cloudy
Meestal Bewolk
84.5 °F
Feels Like 94 °F
N
5.0
Wind Veranderlik Wind from Suid
Gusts 10.0 mph

Vandag
High -- | Low -- °F
--% Chance of Precip.
Yesterday
High -- | Low -- °F
Precip. -- in
6:11 AM 7:51 PM
Waning Crescent, 7% visible
Druk 29.95 in
Sigbaarheid 10.0 myle
Wolke Meestal Bewolk 2500 ft
Meestal Bewolk 3100 ft
Meestal Bewolk 3700 ft
Hitte Indeks 94 °F
Dou-punt 76 °F
Humiditeit 76%
Rainfall 0.05 in
Snow Depth Not available.
UV 5 out of 12
Pollen 5.50 out of 12
Air Quality Not available.
Flu Activity Not available.
METAR KDLL 221715Z AUTO 19006KT 10SM BKN025 BKN031 BKN037 29/21 A2995 RMK AO2 T02900212

More Conditions Fewer Conditions

Druk 29.95 in
Sigbaarheid 10.0 myle
Wolke Meestal Bewolk 2500 ft
Meestal Bewolk 3100 ft
Meestal Bewolk 3700 ft
Hitte Indeks 94 °F
Dou-punt 76 °F
Humiditeit 76%
Rainfall 0.05 in
Snow Depth Not available.
UV 5 out of 12
Pollen 5.50 out of 12
Air Quality Not available.
Flu Activity Not available.
METAR KDLL 221715Z AUTO 19006KT 10SM BKN025 BKN031 BKN037 29/21 A2995 RMK AO2 T02900212

More Conditions Fewer Conditions

10-Day Weather Forecast

Almanac

Astronomy

Aug. 22, 2014 Rise Set
Ware Tyd 6:11 AM CDT 7:51 PM CDT
Civil Twilight 5:40 AM CDT 8:21 PM CDT
Nautical Twilight 5:03 AM CDT 8:58 PM CDT
Astronomical Twilight 4:24 AM CDT 9:38 PM CDT
Maan 3:31 AM CDT 6:01 PM CDT
Length Of Visible Light 14h 40m
Length of Day
13h 40m
Tomorrow will be 2m 47s shorter.
Waning Crescent, 7% of the Moon is Illuminated
Vandag
Waning Crescent
Aug 25
New
Sep 2
Eerste Kwartier
Sep 8
Vol Maan
Sep 15
Laaste kwarter

Today's Extremes

State Highs State Lows

Community

WunderPhotos

Upload Photos

1,746,205 photos uploaded!

WunderBlogs® & News

Nearby

Snow Depth

Station Depth Elevation
No new snow has been reported.

Earthquake Activity

Stad Distance Mag. Time & Date
No recent earthquake activity has been reported nearby.
Minimum magnitude displayed is 2.5.

Coastal Water Temperatures

Plek Temperatuur
No Stations Reporting

Nearby Weather Stations